Time;durP1;ratioP1;P1;durP2;ratioP2;P2;SDS_P1;SDS_P2;PMS_P1;PMS_P2;Temp;Humidity;BMP_temperature;BMP_pressure;BME280_temperature;BME280_humidity;BME280_pressure;Samples;Min_cycle;Max_cycle;Signal;HPM_P1;HPM_P2
2021/07/22 00:00:53;;;;;;;5.83;1.70;;;;;;;22.52;48.38;98979.31;3411637;28;20043;-71
2021/07/22 00:02:34;;;;;;;2.30;1.70;;;;;;;22.51;48.13;98974.97;3414432;28;20418;-70
2021/07/22 00:04:15;;;;;;;3.67;1.30;;;;;;;22.51;48.68;98983.13;3401810;29;20487;-72
2021/07/22 00:05:56;;;;;;;4.53;1.40;;;;;;;22.47;48.54;98980.19;3413555;28;20039;-70
2021/07/22 00:07:37;;;;;;;1.93;1.27;;;;;;;22.48;48.27;98983.72;3402711;29;20549;-70
2021/07/22 00:09:18;;;;;;;6.05;1.45;;;;;;;22.47;48.12;98987.53;3414206;28;20125;-71
2021/07/22 00:10:58;;;;;;;3.03;1.70;;;;;;;22.44;48.37;98988.91;3416922;28;20054;-69
2021/07/22 00:12:39;;;;;;;6.40;1.77;;;;;;;22.41;48.39;98984.88;3417098;28;20081;-70
2021/07/22 00:14:20;;;;;;;2.33;1.30;;;;;;;22.42;48.84;98988.41;3417366;28;20050;-70
2021/07/22 00:16:00;;;;;;;4.93;1.47;;;;;;;22.41;49.22;98986.78;3416965;28;20084;-70
2021/07/22 00:17:41;;;;;;;4.60;1.50;;;;;;;22.35;48.78;98980.59;3417133;28;20142;-71
2021/07/22 00:19:22;;;;;;;2.30;1.37;;;;;;;22.41;49.19;98994.94;3416899;28;20517;-70
2021/07/22 00:21:06;;;;;;;3.20;1.50;;;;;;;22.43;49.26;98990.00;3416552;28;20470;-70
2021/07/22 00:22:47;;;;;;;1.38;1.27;;;;;;;22.44;48.99;98980.78;3416016;28;20051;-70
2021/07/22 00:24:29;;;;;;;4.17;1.40;;;;;;;22.39;48.71;98989.78;3416808;28;20564;-69
2021/07/22 00:26:10;;;;;;;3.22;1.10;;;;;;;22.36;48.61;98995.00;3417015;28;20491;-69
2021/07/22 00:27:51;;;;;;;1.47;1.33;;;;;;;22.29;48.53;98995.31;3402632;29;20044;-71
2021/07/22 00:29:35;;;;;;;4.63;1.27;;;;;;;22.26;49.30;98998.63;3413812;28;20645;-72
2021/07/22 00:31:16;;;;;;;2.13;1.50;;;;;;;22.25;49.05;98988.03;3417031;28;20043;-71
2021/07/22 00:32:57;;;;;;;2.33;1.17;;;;;;;22.23;49.60;98990.22;3416620;28;20039;-69
2021/07/22 00:34:38;;;;;;;2.40;1.50;;;;;;;22.13;49.35;98986.53;3402358;29;20471;-70
2021/07/22 00:36:19;;;;;;;5.33;1.47;;;;;;;22.25;49.12;98998.91;3402921;29;20142;-70
2021/07/22 00:37:59;;;;;;;3.97;1.47;;;;;;;22.20;49.05;99008.75;3414350;28;20069;-71
2021/07/22 00:39:40;;;;;;;3.83;1.60;;;;;;;22.17;49.09;99001.13;3416135;28;20043;-72
2021/07/22 00:41:24;;;;;;;2.33;1.67;;;;;;;22.14;49.08;99009.03;3402372;29;20044;-70
2021/07/22 00:43:06;;;;;;;;;;;;;;;22.15;49.09;99006.03;3402541;29;20043;-70
2021/07/22 00:44:47;;;;;;;3.00;1.93;;;;;;;22.06;49.29;99010.47;3399791;29;19923;-71
2021/07/22 00:46:30;;;;;;;7.05;1.52;;;;;;;22.02;49.13;99004.00;3399874;29;20039;-69
2021/07/22 00:48:11;;;;;;;6.20;1.57;;;;;;;22.00;49.26;99014.34;3399807;29;20074;-71
2021/07/22 00:49:52;;;;;;;3.00;1.70;;;;;;;21.94;49.16;99004.63;3413858;28;20105;-69
2021/07/22 00:51:35;;;;;;;2.22;1.17;;;;;;;21.95;49.31;99011.69;3416591;28;20082;-70
2021/07/22 00:53:15;;;;;;;3.43;1.67;;;;;;;21.97;50.16;99012.19;3402346;29;20039;-70
2021/07/22 00:54:59;;;;;;;1.80;1.13;;;;;;;22.01;49.69;99013.22;3401992;29;20058;-71
2021/07/22 00:56:40;;;;;;;1.67;1.40;;;;;;;22.02;49.79;99012.16;3412919;28;20043;-69
2021/07/22 00:58:21;;;;;;;1.33;1.05;;;;;;;22.03;49.92;99010.25;3416578;28;20063;-70
2021/07/22 01:00:02;;;;;;;1.60;1.23;;;;;;;22.03;49.69;99016.47;3402151;29;20059;-70
2021/07/22 01:01:43;;;;;;;1.55;1.23;;;;;;;22.00;49.39;99017.06;3402328;29;20058;-70
2021/07/22 01:03:26;;;;;;;5.43;1.45;;;;;;;21.97;49.72;99014.91;3402237;29;20051;-69
2021/07/22 01:05:09;;;;;;;2.63;1.60;;;;;;;22.01;49.88;99018.66;3413710;28;20130;-70
2021/07/22 01:06:50;;;;;;;2.80;1.60;;;;;;;22.00;49.86;99022.47;3402175;29;20183;-68
2021/07/22 01:08:31;;;;;;;1.42;1.15;;;;;;;21.98;49.71;99017.31;3388850;29;20044;-68
2021/07/22 01:10:27;;;;;;;1.58;1.23;;;;;;;22.00;50.01;99015.16;3400747;29;20055;-71
2021/07/22 01:12:09;;;;;;;1.60;1.40;;;;;;;22.04;49.95;99017.28;3399869;29;20062;-71
2021/07/22 01:13:50;;;;;;;4.90;1.50;;;;;;;22.02;49.68;99017.59;3412180;28;20047;-70
2021/07/22 01:15:32;;;;;;;;;;;;;;;22.05;49.53;99019.72;3388151;29;20040;-70
2021/07/22 01:17:24;;;;;;;2.97;1.52;;;;;;;21.99;49.61;99027.09;3386369;29;19922;-69
2021/07/22 01:19:05;;;;;;;1.80;1.38;;;;;;;21.92;49.66;99023.09;3401505;29;20436;-70
2021/07/22 01:20:46;;;;;;;1.80;1.20;;;;;;;21.89;49.49;99029.91;3389008;29;20115;-70
2021/07/22 01:22:28;;;;;;;1.23;1.13;;;;;;;21.88;50.00;99024.75;3386569;29;20048;-70
2021/07/22 01:24:09;;;;;;;2.72;1.35;;;;;;;21.88;50.05;99022.03;3388859;29;20048;-70
2021/07/22 01:25:59;;;;;;;3.67;1.85;;;;;;;21.90;50.08;99031.53;3401140;29;20467;-70
2021/07/22 01:27:42;;;;;;;2.42;1.77;;;;;;;21.92;50.38;99026.63;3402137;29;20126;-71
2021/07/22 01:29:25;;;;;;;4.38;1.50;;;;;;;21.95;50.04;99028.75;3403060;28;20050;-69
2021/07/22 01:31:06;;;;;;;1.90;1.48;;;;;;;21.93;49.89;99022.81;3388743;29;20048;-72
2021/07/22 01:32:47;;;;;;;2.93;1.57;;;;;;;21.96;50.05;99032.28;3400145;29;20135;-70
2021/07/22 01:34:27;;;;;;;3.13;1.80;;;;;;;21.94;49.89;99031.75;3402661;29;20455;-69
2021/07/22 01:36:10;;;;;;;2.75;1.85;;;;;;;21.92;49.85;99033.97;3388736;29;20043;-71
2021/07/22 01:37:51;;;;;;;3.78;1.83;;;;;;;21.95;49.54;99027.97;3375673;29;20475;-70
2021/07/22 01:39:32;;;;;;;3.07;1.57;;;;;;;21.95;49.38;99038.81;3383351;29;20095;-69
2021/07/22 01:41:14;;;;;;;2.58;1.70;;;;;;;21.96;49.46;99043.13;3388868;29;20055;-70
2021/07/22 01:42:55;;;;;;;3.13;1.50;;;;;;;21.94;49.32;99042.59;3399691;29;20126;-69
2021/07/22 01:44:38;;;;;;;3.80;1.80;;;;;;;21.92;49.19;99037.47;3388218;29;20315;-71
2021/07/22 01:46:20;;;;;;;2.30;1.73;;;;;;;21.93;49.63;99047.22;3399888;29;20044;-68
2021/07/22 01:48:02;;;;;;;2.15;1.20;;;;;;;21.94;49.50;99045.31;3388720;29;20051;-71
2021/07/22 01:49:44;;;;;;;7.30;1.50;;;;;;;21.94;49.19;99046.16;3386474;29;20047;-71
2021/07/22 01:51:26;;;;;;;4.05;1.77;;;;;;;21.95;49.07;99044.25;3388602;29;20368;-69
2021/07/22 01:53:12;;;;;;;2.08;1.67;;;;;;;21.94;48.99;99043.44;3386690;29;20153;-70
2021/07/22 01:54:53;;;;;;;5.17;1.53;;;;;;;21.95;49.04;99045.03;3385941;29;20515;-70
2021/07/22 01:56:35;;;;;;;5.60;1.48;;;;;;;21.95;48.92;99041.53;3386033;29;20407;-70
2021/07/22 01:58:16;;;;;;;4.53;1.63;;;;;;;21.93;48.80;99047.22;3399883;29;20040;-70
2021/07/22 02:00:04;;;;;;;3.80;1.70;;;;;;;21.93;48.60;99047.22;3388339;29;20419;-70
2021/07/22 02:01:46;;;;;;;2.85;1.40;;;;;;;21.91;48.41;99048.59;3387041;29;20051;-70
2021/07/22 02:03:48;;;;;;;3.50;1.67;;;;;;;21.92;48.64;99042.91;3402330;28;20095;-71
2021/07/22 02:05:29;;;;;;;3.40;1.38;;;;;;;21.92;48.78;99034.75;3388331;29;20051;-70
2021/07/22 02:07:11;;;;;;;6.53;1.77;;;;;;;21.96;48.61;99035.00;3386102;29;20413;-71
2021/07/22 02:08:58;;;;;;;3.03;1.50;;;;;;;21.96;48.50;99035.00;3386318;29;20044;-71
2021/07/22 02:10:39;;;;;;;4.07;1.53;;;;;;;21.99;48.06;99034.41;3385934;29;20143;-71
2021/07/22 02:12:20;;;;;;;5.80;1.40;;;;;;;21.97;47.87;99040.16;3385660;29;20043;-69
2021/07/22 02:14:02;;;;;;;2.72;1.55;;;;;;;21.96;48.05;99043.13;3385761;29;20052;-70
2021/07/22 02:15:43;;;;;;;2.03;1.60;;;;;;;21.94;48.13;99042.59;3388044;29;20040;-72
2021/07/22 02:17:25;;;;;;;2.78;1.27;;;;;;;21.96;48.19;99048.56;3386034;29;20499;-70
2021/07/22 02:19:06;;;;;;;1.27;1.17;;;;;;;21.95;47.94;99045.03;3385282;29;20048;-71
2021/07/22 02:20:49;;;;;;;1.38;1.20;;;;;;;21.92;47.82;99042.91;3385572;29;20092;-71
2021/07/22 02:22:30;;;;;;;4.22;1.17;;;;;;;21.94;47.67;99048.03;3372113;29;20088;-69
2021/07/22 02:24:28;;;;;;;2.35;1.30;;;;;;;21.94;47.51;99053.44;3386890;29;20048;-71
2021/07/22 02:26:36;;;;;;;2.60;1.30;;;;;;;21.91;47.77;99048.59;3397918;29;20062;-70
2021/07/22 02:28:17;;;;;;;2.58;1.30;;;;;;;21.92;47.36;99055.66;3387160;29;20047;-70
2021/07/22 02:29:58;;;;;;;1.57;0.93;;;;;;;21.89;47.44;99050.78;3398997;29;20044;-71
2021/07/22 02:31:40;;;;;;;7.13;1.05;;;;;;;21.87;47.89;99050.28;3387503;29;20048;-71
2021/07/22 02:33:25;;;;;;;1.95;1.38;;;;;;;21.89;47.80;99050.78;3385226;29;20114;-72
2021/07/22 02:35:06;;;;;;;3.80;1.30;;;;;;;21.96;47.59;99059.41;3399025;29;20054;-71
2021/07/22 02:37:06;;;;;;;5.90;1.08;;;;;;;21.98;47.36;99054.50;3387718;29;20047;-71
2021/07/22 02:39:06;;;;;;;1.92;0.98;;;;;;;22.01;47.47;99056.66;3386811;29;20047;-70
2021/07/22 02:40:48;;;;;;;2.25;1.08;;;;;;;22.04;47.25;99064.22;3401288;29;20043;-71
2021/07/22 02:42:31;;;;;;;2.25;0.80;;;;;;;22.07;47.14;99065.56;3387339;29;20047;-70
2021/07/22 02:44:21;;;;;;;1.63;1.10;;;;;;;22.07;47.19;99060.97;3386885;29;20531;-71
2021/07/22 02:46:13;;;;;;;8.98;1.80;;;;;;;22.10;46.74;99063.09;3399441;29;20084;-70
2021/07/22 02:48:08;;;;;;;2.10;0.80;;;;;;;22.10;46.10;99068.53;3400587;29;20053;-71
2021/07/22 02:49:49;;;;;;;1.80;1.10;;;;;;;22.06;46.13;99072.88;3397857;29;20043;-71
2021/07/22 02:51:31;;;;;;;4.40;1.27;;;;;;;21.99;46.19;99075.94;3397696;29;20054;-70
2021/07/22 02:53:12;;;;;;;3.20;0.93;;;;;;;21.95;46.77;99071.38;3412046;28;20050;-70
2021/07/22 02:55:06;;;;;;;3.95;1.20;;;;;;;21.96;46.46;99078.41;3400195;29;20044;-70
2021/07/22 02:56:48;;;;;;;3.53;0.88;;;;;;;22.00;46.69;99082.19;3397881;29;20054;-70
2021/07/22 02:58:37;;;;;;;2.85;0.88;;;;;;;22.01;46.55;99070.22;3399010;29;20048;-68
2021/07/22 03:00:18;;;;;;;1.58;0.80;;;;;;;22.09;46.31;99083.16;3397618;29;20048;-70
2021/07/22 03:02:00;;;;;;;1.00;0.80;;;;;;;22.11;46.34;99083.69;3397669;29;20035;-70
2021/07/22 03:03:41;;;;;;;1.70;0.70;;;;;;;22.14;45.87;99083.13;3397896;29;20055;-72
2021/07/22 03:05:24;;;;;;;4.68;0.93;;;;;;;22.16;45.98;99089.09;3398025;29;20047;-71
2021/07/22 03:07:06;;;;;;;;;;;;;;;22.22;45.98;99076.28;3400332;29;20543;-71
2021/07/22 03:08:48;;;;;;;2.88;0.85;;;;;;;22.17;45.49;99079.84;3400409;29;19945;-71
2021/07/22 03:10:29;;;;;;;1.00;0.77;;;;;;;22.15;45.44;99083.94;3397422;29;20044;-70
2021/07/22 03:12:12;;;;;;;1.50;0.95;;;;;;;22.13;45.37;99086.94;3397947;29;20203;-70
2021/07/22 03:14:03;;;;;;;2.55;0.90;;;;;;;22.13;45.29;99088.84;3412886;28;20051;-70
2021/07/22 03:15:45;;;;;;;5.38;0.70;;;;;;;22.16;45.07;99088.28;3400134;29;20097;-70
2021/07/22 03:17:46;;;;;;;1.35;0.80;;;;;;;22.19;44.63;99095.88;3414178;28;20047;-70
2021/07/22 03:19:27;;;;;;;7.97;1.07;;;;;;;22.15;44.55;99095.63;3400014;29;20138;-72
2021/07/22 03:21:22;;;;;;;3.15;0.95;;;;;;;22.20;44.68;99094.75;3359696;29;1196312;-70
2021/07/22 03:23:22;;;;;;;1.08;0.57;;;;;;;22.23;44.41;99104.25;3401448;29;20153;-72
2021/07/22 03:25:07;;;;;;;2.08;0.90;;;;;;;22.23;44.12;99099.66;3400393;29;20418;-72
2021/07/22 03:27:02;;;;;;;1.83;0.80;;;;;;;22.24;44.19;99105.88;3399792;29;20048;-70
2021/07/22 03:28:44;;;;;;;1.93;0.77;;;;;;;22.23;44.20;99105.09;3398136;29;20040;-70
2021/07/22 03:30:41;;;;;;;1.38;1.10;;;;;;;22.24;44.17;99095.03;3399820;29;20043;-70
2021/07/22 03:32:41;;;;;;;1.77;0.80;;;;;;;22.28;44.31;99106.91;3401595;29;20048;-70
2021/07/22 03:34:22;;;;;;;7.20;0.98;;;;;;;22.34;44.06;99108.50;3400436;29;20075;-69
2021/07/22 03:36:11;;;;;;;3.45;0.70;;;;;;;22.35;43.84;99107.41;3400370;29;20478;-69
2021/07/22 03:37:59;;;;;;;2.42;0.77;;;;;;;22.34;43.41;99109.31;3400645;29;20086;-70
2021/07/22 03:39:41;;;;;;;2.22;1.00;;;;;;;22.34;43.28;99108.50;3403318;29;20122;-71
2021/07/22 03:41:24;;;;;;;1.60;0.70;;;;;;;22.28;43.12;99113.19;3403102;29;20086;-70
2021/07/22 03:43:06;;;;;;;1.30;0.85;;;;;;;22.28;43.30;99109.63;3400917;29;20051;-71
2021/07/22 03:44:52;;;;;;;1.40;0.57;;;;;;;22.30;43.37;99112.88;3403177;29;20471;-72
2021/07/22 03:46:33;;;;;;;4.07;0.68;;;;;;;22.30;43.33;99110.97;3400669;29;20052;-73
2021/07/22 03:48:14;;;;;;;1.13;0.80;;;;;;;22.33;43.20;99121.28;3403153;29;20051;-70
2021/07/22 03:49:57;;;;;;;4.55;0.65;;;;;;;22.36;43.09;99119.91;3400410;29;20411;-71
2021/07/22 03:52:06;;;;;;;0.95;0.60;;;;;;;22.37;42.90;99110.63;3400365;29;20471;-70
2021/07/22 03:53:54;;;;;;;2.67;0.68;;;;;;;22.37;43.15;99118.78;3389805;29;20500;-70
2021/07/22 03:55:35;;;;;;;1.90;0.93;;;;;;;22.40;42.89;99126.34;3398760;29;20044;-72
2021/07/22 03:57:34;;;;;;;2.65;0.60;;;;;;;22.42;42.80;99126.88;3403820;29;20047;-70
2021/07/22 03:59:16;;;;;;;3.47;0.80;;;;;;;22.43;42.66;99110.31;3403382;29;20051;-70
2021/07/22 04:00:57;;;;;;;5.35;0.95;;;;;;;22.45;42.87;99120.88;3400482;29;20043;-71
2021/07/22 04:03:00;;;;;;;2.85;0.80;;;;;;;22.46;42.42;99122.50;3402496;29;20187;-72
2021/07/22 04:04:43;;;;;;;1.92;1.13;;;;;;;22.48;42.83;99123.00;3402854;29;20043;-73
2021/07/22 04:06:26;;;;;;;1.25;0.70;;;;;;;22.51;42.77;99122.47;3400352;29;20047;-71
2021/07/22 04:08:08;;;;;;;1.77;0.80;;;;;;;22.53;42.27;99125.66;3400538;29;20099;-71
2021/07/22 04:09:57;;;;;;;3.35;0.65;;;;;;;22.54;42.36;99119.16;3401190;29;20044;-71
2021/07/22 04:11:51;;;;;;;2.05;0.85;;;;;;;22.57;42.10;99121.31;3401765;29;20103;-70
2021/07/22 04:13:50;;;;;;;2.33;0.95;;;;;;;22.60;42.26;99126.16;3403961;29;20044;-70
2021/07/22 04:15:44;;;;;;;7.13;1.58;;;;;;;22.60;42.21;99125.34;3402880;29;20043;-70
2021/07/22 04:17:59;;;;;;;2.95;0.82;;;;;;;22.65;42.33;99120.66;3391898;29;20051;-70
2021/07/22 04:19:58;;;;;;;1.30;0.70;;;;;;;22.72;42.11;99124.94;3403233;29;20126;-70
2021/07/22 04:22:10;;;;;;;12.00;0.73;;;;;;;22.71;41.82;99115.19;3388767;29;20180;-70
2021/07/22 04:24:04;;;;;;;3.78;0.60;;;;;;;22.76;41.81;99124.06;3400786;29;20107;-70
2021/07/22 04:26:16;;;;;;;5.05;0.70;;;;;;;22.77;41.63;99124.88;3375790;29;20063;-71
2021/07/22 04:28:13;;;;;;;2.92;0.50;;;;;;;22.76;41.81;99126.00;3389869;29;20060;-68
2021/07/22 04:29:59;;;;;;;0.75;0.52;;;;;;;22.73;41.63;99130.09;3389999;29;20047;-71
2021/07/22 04:31:41;;;;;;;4.60;0.77;;;;;;;22.72;41.74;99139.34;3387463;29;20044;-70
2021/07/22 04:33:54;;;;;;;3.25;0.77;;;;;;;22.79;41.90;99137.06;3379313;29;20052;-71
2021/07/22 04:36:01;;;;;;;5.28;0.70;;;;;;;22.87;42.04;99130.19;3389025;29;20063;-68
2021/07/22 04:38:07;;;;;;;10.70;0.95;;;;;;;22.91;41.41;99133.97;3389488;29;20102;-68
2021/07/22 04:40:11;;;;;;;2.33;1.00;;;;;;;22.84;41.40;99126.16;3371696;29;20060;-71
2021/07/22 04:42:16;;;;;;;2.33;1.02;;;;;;;22.86;41.23;99134.81;3389378;29;20044;-70
2021/07/22 04:44:15;;;;;;;0.77;0.60;;;;;;;22.86;41.33;99134.03;3389406;29;20134;-69
2021/07/22 04:46:14;;;;;;;3.80;0.95;;;;;;;22.85;41.16;99137.84;3390235;29;20051;-68
2021/07/22 04:48:18;;;;;;;3.72;0.55;;;;;;;22.82;41.32;99132.97;3390115;29;20071;-69
2021/07/22 04:50:17;;;;;;;2.78;0.90;;;;;;;22.85;41.55;99132.41;3390248;29;20055;-67
2021/07/22 04:52:24;;;;;;;1.60;0.75;;;;;;;22.88;41.19;99136.47;3382089;29;20063;-69
2021/07/22 04:54:34;;;;;;;2.58;1.10;;;;;;;22.91;41.27;99142.13;3385180;29;20084;-68
2021/07/22 04:56:15;;;;;;;1.27;0.80;;;;;;;22.92;41.40;99143.72;3390298;29;20126;-68
2021/07/22 04:58:00;;;;;;;1.88;0.80;;;;;;;22.90;41.25;99145.94;3389125;29;20527;-70
2021/07/22 04:59:42;;;;;;;4.35;0.90;;;;;;;22.90;41.57;99148.66;3387096;29;20115;-70
2021/07/22 05:01:22;;;;;;;3.50;0.93;;;;;;;22.93;42.02;99150.78;3390124;29;20495;-70
2021/07/22 05:03:04;;;;;;;5.93;1.00;;;;;;;22.94;41.86;99146.97;3388886;29;20138;-69
2021/07/22 05:04:47;;;;;;;2.40;0.90;;;;;;;22.96;41.83;99149.41;3389141;29;20080;-70
2021/07/22 05:06:29;;;;;;;2.10;0.73;;;;;;;22.96;41.74;99144.78;3399289;29;20554;-67
2021/07/22 05:08:20;;;;;;;3.72;0.95;;;;;;;23.00;41.94;99145.88;3388970;29;20140;-69
2021/07/22 05:10:27;;;;;;;5.45;0.73;;;;;;;23.05;42.11;99150.41;3388721;29;20610;-67
2021/07/22 05:12:29;;;;;;;5.60;0.80;;;;;;;23.16;42.12;99143.75;3388793;29;20083;-70
2021/07/22 05:14:39;;;;;;;3.90;1.60;;;;;;;23.25;43.23;99146.63;3381023;29;20094;-67
2021/07/22 05:16:52;;;;;;;10.07;1.20;;;;;;;23.34;42.85;99144.91;3386029;29;20479;-68
2021/07/22 05:18:53;;;;;;;2.67;0.70;;;;;;;23.49;42.31;99152.84;3389787;29;20060;-70
2021/07/22 05:20:45;;;;;;;12.27;1.00;;;;;;;23.59;41.76;99148.34;3394653;28;20103;-70
2021/07/22 05:22:52;;;;;;;6.38;1.30;;;;;;;23.70;42.56;99144.41;3389543;29;20127;-69
2021/07/22 05:24:43;;;;;;;12.13;1.70;;;;;;;23.74;41.64;99148.16;3401833;29;20590;-71
2021/07/22 05:27:03;;;;;;;3.75;1.20;;;;;;;23.83;41.53;99138.25;3406400;28;20050;-70
2021/07/22 05:29:07;;;;;;;6.78;1.58;;;;;;;23.90;40.91;99146.00;3415976;28;20050;-69
2021/07/22 05:31:10;;;;;;;1.88;1.40;;;;;;;23.95;40.54;99146.75;3415978;28;20138;-70
2021/07/22 05:33:05;;;;;;;3.17;0.95;;;;;;;23.94;40.16;99139.69;3401749;29;20098;-76
2021/07/22 05:35:06;;;;;;;;;;;;;;;24.03;39.89;99155.34;3402034;29;20574;-75
2021/07/22 05:37:07;;;;;;;11.77;1.27;;;;;;;23.90;39.51;99149.53;3415322;28;19935;-75
2021/07/22 05:38:55;;;;;;;4.20;0.90;;;;;;;23.81;39.14;99147.81;3416005;28;20058;-75
2021/07/22 05:40:36;;;;;;;10.23;1.10;;;;;;;23.77;39.19;99142.13;3415755;28;20090;-74
2021/07/22 05:42:17;;;;;;;6.00;0.90;;;;;;;23.75;39.02;99147.06;3415843;28;20043;-75
2021/07/22 05:44:00;;;;;;;9.50;1.30;;;;;;;23.73;38.84;99149.28;3415527;28;20039;-75
2021/07/22 05:45:41;;;;;;;7.13;1.05;;;;;;;23.72;38.87;99150.38;3415630;28;20493;-75
2021/07/22 05:47:21;;;;;;;15.53;1.60;;;;;;;23.75;38.64;99146.25;3401598;29;20140;-75
2021/07/22 05:49:02;;;;;;;14.93;1.60;;;;;;;23.76;38.68;99151.41;3398735;29;20044;-75
2021/07/22 05:50:44;;;;;;;22.35;2.47;;;;;;;23.75;38.60;99141.63;3412953;28;20051;-73
2021/07/22 05:52:25;;;;;;;16.30;1.70;;;;;;;23.71;38.63;99140.56;3415860;28;20051;-75
2021/07/22 05:54:05;;;;;;;12.57;1.73;;;;;;;23.74;38.37;99134.56;3401381;29;20043;-74
2021/07/22 05:55:46;;;;;;;7.83;1.10;;;;;;;23.74;38.32;99137.28;3412855;28;20275;-75
2021/07/22 05:57:27;;;;;;;6.13;1.63;;;;;;;23.72;38.25;99140.31;3415382;28;20476;-74
2021/07/22 05:59:08;;;;;;;9.57;1.37;;;;;;;23.70;38.08;99147.94;3415613;28;20091;-75
2021/07/22 06:00:48;;;;;;;6.67;1.60;;;;;;;23.72;38.15;99134.03;3401340;29;20035;-74
2021/07/22 06:02:29;;;;;;;9.33;1.80;;;;;;;23.77;37.85;99146.75;3412075;28;20134;-75
2021/07/22 06:04:10;;;;;;;14.73;2.50;;;;;;;23.80;37.87;99146.16;3413184;28;20463;-75
2021/07/22 06:05:52;;;;;;;12.50;1.30;;;;;;;23.83;37.51;99145.59;3388721;29;20067;-75
2021/07/22 06:07:33;;;;;;;28.20;1.98;;;;;;;23.80;37.68;99138.84;3398467;29;20055;-76
2021/07/22 06:09:14;;;;;;;4.32;1.02;;;;;;;23.81;37.76;99143.16;3412830;28;20082;-74
2021/07/22 06:10:55;;;;;;;7.43;1.10;;;;;;;23.81;37.80;99140.44;3415357;28;20039;-75
2021/07/22 06:12:36;;;;;;;14.88;1.40;;;;;;;23.84;37.50;99150.72;3415058;28;20055;-76
2021/07/22 06:14:35;;;;;;;6.38;1.45;;;;;;;23.86;37.20;99150.44;3401295;29;20082;-74
2021/07/22 06:16:15;;;;;;;11.33;0.80;;;;;;;23.91;37.46;99153.91;3400494;29;20043;-75
2021/07/22 06:17:56;;;;;;;10.23;1.23;;;;;;;23.98;37.02;99147.25;3405281;28;20043;-75
2021/07/22 06:19:37;;;;;;;8.23;1.00;;;;;;;24.07;36.90;99151.75;3414298;28;20063;-74
2021/07/22 06:21:18;;;;;;;5.93;0.90;;;;;;;24.14;36.60;99156.81;3401937;28;20047;-75
2021/07/22 06:22:59;;;;;;;7.25;0.93;;;;;;;24.24;36.38;99156.66;3401804;29;20070;-75
2021/07/22 06:24:40;;;;;;;6.90;1.27;;;;;;;24.32;36.25;99164.13;3387897;29;20040;-74
2021/07/22 06:26:20;;;;;;;12.63;1.70;;;;;;;24.42;35.70;99154.16;3388118;29;20564;-75
2021/07/22 06:28:01;;;;;;;16.90;2.93;;;;;;;24.54;35.60;99151.78;3399718;28;20059;-74
2021/07/22 06:29:42;;;;;;;22.90;2.37;;;;;;;24.62;34.87;99145.63;3401876;29;20051;-74
2021/07/22 06:31:23;;;;;;;53.07;4.47;;;;;;;24.75;34.37;99147.56;3401911;29;20184;-76
2021/07/22 06:33:03;;;;;;;8.67;1.23;;;;;;;24.88;34.32;99156.06;3402157;28;20035;-75
2021/07/22 06:34:44;;;;;;;11.47;1.20;;;;;;;24.99;34.20;99147.41;3404037;28;20440;-76
2021/07/22 06:36:25;;;;;;;7.27;1.00;;;;;;;25.14;33.40;99159.09;3411261;28;20159;-74
2021/07/22 06:38:17;;;;;;;10.20;0.93;;;;;;;25.29;33.40;99163.47;3404065;28;20288;-74
2021/07/22 06:39:59;;;;;;;7.80;0.82;;;;;;;25.38;32.68;99161.63;3402072;29;20039;-74
2021/07/22 06:41:39;;;;;;;6.23;1.27;;;;;;;25.45;31.94;99156.56;3402066;29;20051;-77
2021/07/22 06:43:20;;;;;;;5.23;2.50;;;;;;;25.59;32.06;99151.09;3401985;29;20783;-75
2021/07/22 06:45:02;;;;;;;2.93;1.37;;;;;;;25.72;31.71;99152.97;3408083;28;20388;-75
2021/07/22 06:46:43;;;;;;;2.45;0.98;;;;;;;25.83;31.27;99153.53;3414932;28;20066;-74
2021/07/22 06:48:24;;;;;;;1.23;0.90;;;;;;;25.93;30.99;99145.13;3407308;28;20039;-74
2021/07/22 06:50:07;;;;;;;2.50;0.70;;;;;;;26.00;30.66;99147.44;3428124;28;20490;-74
2021/07/22 06:51:48;;;;;;;10.57;1.95;;;;;;;26.07;30.84;99153.25;3400666;29;20162;-75
2021/07/22 06:53:29;;;;;;;9.57;1.75;;;;;;;26.15;30.75;99157.16;3421799;28;20530;-75
2021/07/22 06:55:10;;;;;;;15.03;2.50;;;;;;;26.23;30.39;99159.97;3401741;29;20055;-74
2021/07/22 06:56:51;;;;;;;13.10;2.47;;;;;;;26.33;29.79;99154.25;3401665;29;20051;-75
2021/07/22 06:58:32;;;;;;;18.57;2.03;;;;;;;26.40;29.75;99148.31;3405330;28;20067;-74
2021/07/22 07:00:12;;;;;;;10.67;1.63;;;;;;;26.50;29.73;99152.72;3400665;29;20078;-74
2021/07/22 07:01:53;;;;;;;20.30;2.47;;;;;;;26.56;29.33;99148.75;3402499;28;20467;-74
2021/07/22 07:03:34;;;;;;;20.87;2.83;;;;;;;26.64;30.00;99160.84;3402408;28;20055;-76
2021/07/22 07:05:14;;;;;;;11.50;1.30;;;;;;;26.71;29.99;99155.75;3401505;29;20047;-75
2021/07/22 07:06:55;;;;;;;9.90;2.17;;;;;;;26.77;29.82;99146.31;3401561;29;20503;-75
2021/07/22 07:08:36;;;;;;;22.83;1.97;;;;;;;26.85;30.16;99148.25;3401426;29;20471;-74
2021/07/22 07:10:17;;;;;;;12.87;1.67;;;;;;;26.96;30.08;99151.50;3401420;29;20175;-74
2021/07/22 07:11:58;;;;;;;13.38;1.48;;;;;;;27.04;29.80;99152.66;3401349;29;20046;-74
2021/07/22 07:13:39;;;;;;;5.03;0.80;;;;;;;27.15;29.45;99151.25;3409396;28;20058;-75
2021/07/22 07:15:20;;;;;;;12.17;1.00;;;;;;;27.22;29.16;99146.13;3414870;28;20066;-74
2021/07/22 07:17:00;;;;;;;6.90;1.95;;;;;;;27.33;29.19;99150.19;3400442;29;20130;-73
2021/07/22 07:18:41;;;;;;;6.00;1.57;;;;;;;27.43;29.45;99151.00;3412118;28;20528;-75
2021/07/22 07:20:22;;;;;;;28.57;3.07;;;;;;;27.52;29.71;99151.81;3414749;28;20125;-76
2021/07/22 07:22:03;;;;;;;11.60;2.03;;;;;;;27.60;29.19;99151.03;3414343;28;20063;-75
2021/07/22 07:23:44;;;;;;;12.40;1.47;;;;;;;27.72;29.65;99145.72;3402542;28;20099;-75
2021/07/22 07:25:24;;;;;;;10.90;1.13;;;;;;;27.79;28.91;99148.78;3411142;28;20066;-75
2021/07/22 07:27:06;;;;;;;7.97;1.20;;;;;;;27.90;29.15;99153.97;3397022;29;20295;-74
2021/07/22 07:28:46;;;;;;;16.10;2.35;;;;;;;27.94;29.49;99149.47;3398563;29;20036;-73
2021/07/22 07:30:27;;;;;;;18.07;2.70;;;;;;;28.02;28.79;99162.34;3411245;28;20047;-75
2021/07/22 07:32:08;;;;;;;19.17;2.97;;;;;;;28.07;29.01;99148.47;3399529;29;20050;-74
2021/07/22 07:33:49;;;;;;;30.83;3.77;;;;;;;28.13;28.80;99147.16;3398632;29;20071;-74
2021/07/22 07:35:30;;;;;;;14.48;2.22;;;;;;;28.19;28.73;99156.03;3402179;28;20047;-74
2021/07/22 07:37:11;;;;;;;15.60;2.35;;;;;;;28.26;28.68;99156.34;3388323;29;20067;-74
2021/07/22 07:38:52;;;;;;;10.33;2.10;;;;;;;28.35;28.72;99146.19;3390706;29;20431;-75
2021/07/22 07:40:33;;;;;;;10.10;1.70;;;;;;;28.41;28.28;99144.06;3411636;28;20302;-75
2021/07/22 07:42:13;;;;;;;26.83;2.80;;;;;;;28.52;28.08;99147.28;3414681;28;20418;-75
2021/07/22 07:43:54;;;;;;;11.83;2.07;;;;;;;28.59;28.57;99148.38;3401463;28;20043;-74
2021/07/22 07:45:35;;;;;;;42.58;4.38;;;;;;;28.72;28.45;99148.50;3400923;29;20063;-74
2021/07/22 07:47:17;;;;;;;13.20;1.40;;;;;;;28.80;28.46;99147.66;3401626;29;20479;-75
2021/07/22 07:48:57;;;;;;;13.55;1.48;;;;;;;28.87;27.97;99145.22;3387121;29;20047;-75
2021/07/22 07:50:38;;;;;;;9.13;1.20;;;;;;;28.99;27.93;99144.50;3398449;29;20163;-76
2021/07/22 07:52:19;;;;;;;11.00;1.00;;;;;;;29.00;27.61;99135.94;3401646;29;20288;-73
2021/07/22 07:54:00;;;;;;;44.15;4.80;;;;;;;29.14;27.39;99144.75;3409420;28;20126;-74
2021/07/22 07:55:42;;;;;;;9.97;1.53;;;;;;;29.17;26.70;99143.28;3415595;28;20043;-77
2021/07/22 07:57:23;;;;;;;5.72;1.23;;;;;;;29.23;26.78;99143.94;3412609;28;20499;-75
2021/07/22 07:59:05;;;;;;;8.27;1.15;;;;;;;29.31;26.84;99143.88;3416183;28;20047;-74
2021/07/22 08:00:47;;;;;;;40.67;3.70;;;;;;;29.39;26.97;99147.69;3414386;28;20098;-75
2021/07/22 08:02:28;;;;;;;60.83;4.72;;;;;;;29.43;26.61;99145.06;3395003;29;20522;-74
2021/07/22 08:04:09;;;;;;;23.43;3.13;;;;;;;29.50;26.62;99157.13;3408078;28;20098;-75
2021/07/22 08:05:51;;;;;;;38.33;5.47;;;;;;;29.57;26.14;99148.38;3408086;28;20047;-74
2021/07/22 08:07:31;;;;;;;20.85;2.95;;;;;;;29.69;26.77;99145.75;3408808;28;20434;-73
2021/07/22 08:09:12;;;;;;;7.77;1.40;;;;;;;29.82;26.34;99145.78;3409491;28;20043;-74
2021/07/22 08:10:58;;;;;;;13.50;1.63;;;;;;;29.91;26.29;99147.31;3408247;28;20091;-77
2021/07/22 08:12:40;;;;;;;9.13;1.35;;;;;;;29.97;26.17;99154.22;3394773;29;20039;-76
2021/07/22 08:14:22;;;;;;;7.75;1.10;;;;;;;30.05;26.22;99147.06;3403651;28;20044;-76
2021/07/22 08:16:21;;;;;;;17.42;1.38;;;;;;;30.12;26.08;99157.47;3408174;28;20040;-75